TimeCDT,TemperatureF,Dew PointF,Humidity,Sea Level PressureIn,VisibilityMPH,Wind Direction,Wind SpeedMPH,Gust SpeedMPH,PrecipitationIn,Events,Conditions,WindDirDegrees,DateUTC
12:53 AM,60.1,57.0,90,30.10,10.0,SSW,3.5,-,N/A,,Scattered Clouds,200,2012-10-04 05:53:00
1:53 AM,62.1,55.0,78,30.11,10.0,Calm,Calm,-,N/A,,Clear,0,2012-10-04 06:53:00
2:53 AM,57.0,54.0,89,30.12,10.0,Calm,Calm,-,N/A,,Clear,0,2012-10-04 07:53:00
3:53 AM,55.9,53.1,90,30.13,9.0,Calm,Calm,-,N/A,,Clear,0,2012-10-04 08:53:00
4:16 AM,53.6,53.6,100,30.14,1.5,Calm,Calm,-,N/A,,Clear,0,2012-10-04 09:16:00
4:30 AM,55.4,53.6,94,30.15,3.0,Calm,Calm,-,N/A,,Clear,0,2012-10-04 09:30:00
4:53 AM,55.0,53.1,93,30.15,1.0,Calm,Calm,-,N/A,,Clear,0,2012-10-04 09:53:00
5:00 AM,55.4,53.6,94,30.16,0.2,Calm,Calm,-,N/A,Fog,Fog,0,2012-10-04 10:00:00
5:11 AM,55.4,53.6,94,30.16,1.0,Calm,Calm,-,N/A,,Clear,0,2012-10-04 10:11:00
5:14 AM,55.4,53.6,94,30.16,4.0,Calm,Calm,-,N/A,,Clear,0,2012-10-04 10:14:00
5:20 AM,53.6,53.6,100,30.16,1.5,Calm,Calm,-,N/A,,Clear,0,2012-10-04 10:20:00
5:37 AM,53.6,53.6,100,30.17,2.0,Calm,Calm,-,N/A,,Clear,0,2012-10-04 10:37:00
5:45 AM,53.6,53.6,100,30.17,4.0,Calm,Calm,-,N/A,,Clear,0,2012-10-04 10:45:00
5:47 AM,53.6,51.8,94,30.17,1.8,Calm,Calm,-,N/A,,Clear,0,2012-10-04 10:47:00
5:53 AM,54.0,52.0,93,30.17,1.5,Calm,Calm,-,N/A,,Clear,0,2012-10-04 10:53:00
5:56 AM,53.6,51.8,94,30.17,3.0,Calm,Calm,-,N/A,,Clear,0,2012-10-04 10:56:00
6:03 AM,53.6,53.6,100,30.17,1.5,Calm,Calm,-,N/A,,Clear,0,2012-10-04 11:03:00
6:12 AM,53.6,53.6,100,30.17,0.5,Calm,Calm,-,N/A,Fog,Fog,0,2012-10-04 11:12:00
6:26 AM,53.6,51.8,94,30.18,1.8,Calm,Calm,-,N/A,,Clear,0,2012-10-04 11:26:00
6:34 AM,53.6,51.8,94,30.18,2.0,Calm,Calm,-,N/A,,Clear,0,2012-10-04 11:34:00
6:53 AM,54.0,52.0,93,30.18,1.0,Calm,Calm,-,N/A,,Clear,0,2012-10-04 11:53:00
7:01 AM,53.6,51.8,94,30.18,4.0,Calm,Calm,-,N/A,,Clear,0,2012-10-04 12:01:00
7:53 AM,57.0,54.0,89,30.19,5.0,Calm,Calm,-,N/A,,Clear,0,2012-10-04 12:53:00
8:53 AM,63.0,57.0,81,30.21,10.0,Calm,Calm,-,N/A,,Clear,0,2012-10-04 13:53:00
9:53 AM,69.1,57.0,65,30.22,10.0,SW,9.2,-,N/A,,Clear,220,2012-10-04 14:53:00
10:53 AM,75.0,59.0,57,30.21,10.0,SW,6.9,-,N/A,,Clear,230,2012-10-04 15:53:00
11:53 AM,78.1,57.9,50,30.19,10.0,SW,10.4,-,N/A,,Clear,220,2012-10-04 16:53:00
12:53 PM,80.1,55.9,43,30.18,10.0,South,6.9,-,N/A,,Clear,180,2012-10-04 17:53:00
1:53 PM,82.0,55.9,41,30.15,10.0,SW,8.1,-,N/A,,Clear,230,2012-10-04 18:53:00
2:53 PM,82.0,54.0,38,30.12,10.0,SW,8.1,17.3,N/A,,Clear,220,2012-10-04 19:53:00
3:53 PM,82.0,52.0,35,30.12,10.0,SW,9.2,18.4,N/A,,Clear,220,2012-10-04 20:53:00
4:53 PM,82.0,51.1,34,30.12,10.0,SW,9.2,-,N/A,,Clear,230,2012-10-04 21:53:00
5:53 PM,79.0,52.0,39,30.12,10.0,SW,5.8,-,N/A,,Clear,220,2012-10-04 22:53:00
6:53 PM,72.0,55.0,55,30.12,10.0,Calm,Calm,-,N/A,,Clear,0,2012-10-04 23:53:00
7:53 PM,64.9,57.0,75,30.13,10.0,Calm,Calm,-,N/A,,Clear,0,2012-10-05 00:53:00
8:53 PM,62.1,55.9,80,30.13,10.0,Calm,Calm,-,N/A,,Clear,0,2012-10-05 01:53:00
9:53 PM,61.0,55.9,83,30.14,10.0,Calm,Calm,-,N/A,,Clear,0,2012-10-05 02:53:00
10:53 PM,59.0,57.0,93,30.14,8.0,Calm,Calm,-,N/A,,Clear,0,2012-10-05 03:53:00
11:53 PM,57.9,55.9,93,30.14,8.0,Calm,Calm,-,N/A,,Clear,0,2012-10-05 04:53:00